Adelaide, Australia
Current Conditions -  °F | °C
As of 2:00 PM on Sunday 26 Oct 2014 (Local Time) from YPAD Reporting Station
Rain Showers Rain Showers  
Wind Chill: 77°   Ceiling: 11000
Heat Index: 79°   Visibility: 6mi
Dew Point: 57°   Wind: 6mph
Humidity: 50%   Direction: 230°SW
Pressure: 29.8"   Gusts: NA
Location:  34.93°S, 138.6°E
Report Text: YPAD 260400Z 23005KT 9999 VCSH FEW100CB BKN110 25/14 Q1009 FM0500 32014KT 9999 -SHRA BKN120 INTER 0400/0700 VRB30G40KT 5000 TSRA SCT100CB BKN120
Loading
Personal Weather Stations






























Interactive Weather Map
Tropical Storm Tracking
New forecast layout! Learn more

10-Day Weather Forecast

Advertisements
Track Severe Weather on mobile